sensor_id;sensor_type;location;lat;lon;timestamp;pressure;altitude;pressure_sealevel;temperature
64960;BMP180;51487;52.266;10.542;2022-10-22T00:00:14;100045.00;;;12.50
64960;BMP180;51487;52.266;10.542;2022-10-22T00:02:41;100040.00;;;12.50
64960;BMP180;51487;52.266;10.542;2022-10-22T00:05:08;100048.00;;;12.50
64960;BMP180;51487;52.266;10.542;2022-10-22T00:07:34;100047.00;;;12.50
64960;BMP180;51487;52.266;10.542;2022-10-22T00:10:00;100058.00;;;12.50
64960;BMP180;51487;52.266;10.542;2022-10-22T00:12:26;100058.00;;;12.50
64960;BMP180;51487;52.266;10.542;2022-10-22T00:14:52;100080.00;;;12.50
64960;BMP180;51487;52.266;10.542;2022-10-22T00:17:18;100086.00;;;12.50
64960;BMP180;51487;52.266;10.542;2022-10-22T00:19:43;100087.00;;;12.50
64960;BMP180;51487;52.266;10.542;2022-10-22T00:22:10;100078.00;;;12.60
64960;BMP180;51487;52.266;10.542;2022-10-22T00:24:37;100086.00;;;12.60
64960;BMP180;51487;52.266;10.542;2022-10-22T00:27:04;100081.00;;;12.60
64960;BMP180;51487;52.266;10.542;2022-10-22T00:29:31;100086.00;;;12.60
64960;BMP180;51487;52.266;10.542;2022-10-22T00:31:57;100083.00;;;12.60
64960;BMP180;51487;52.266;10.542;2022-10-22T00:34:23;100069.00;;;12.70
64960;BMP180;51487;52.266;10.542;2022-10-22T00:36:49;100067.00;;;12.70
64960;BMP180;51487;52.266;10.542;2022-10-22T00:39:18;100077.00;;;12.60
64960;BMP180;51487;52.266;10.542;2022-10-22T00:41:47;100070.00;;;12.60
64960;BMP180;51487;52.266;10.542;2022-10-22T00:47:30;100079.00;;;12.70
64960;BMP180;51487;52.266;10.542;2022-10-22T00:50:03;100063.00;;;12.70
64960;BMP180;51487;52.266;10.542;2022-10-22T00:52:31;100059.00;;;12.70
64960;BMP180;51487;52.266;10.542;2022-10-22T00:54:58;100058.00;;;12.70
64960;BMP180;51487;52.266;10.542;2022-10-22T00:57:26;100055.00;;;12.70
64960;BMP180;51487;52.266;10.542;2022-10-22T00:59:53;100067.00;;;12.70
64960;BMP180;51487;52.266;10.542;2022-10-22T01:02:21;100090.00;;;12.70
64960;BMP180;51487;52.266;10.542;2022-10-22T01:04:46;100094.00;;;12.70
64960;BMP180;51487;52.266;10.542;2022-10-22T01:07:18;100077.00;;;12.70
64960;BMP180;51487;52.266;10.542;2022-10-22T01:16:21;100069.00;;;12.70
64960;BMP180;51487;52.266;10.542;2022-10-22T01:21:46;100067.00;;;12.70
64960;BMP180;51487;52.266;10.542;2022-10-22T01:30:06;100044.00;;;12.70
64960;BMP180;51487;52.266;10.542;2022-10-22T01:32:35;100053.00;;;12.70
64960;BMP180;51487;52.266;10.542;2022-10-22T01:35:08;100077.00;;;12.70
64960;BMP180;51487;52.266;10.542;2022-10-22T01:37:42;100078.00;;;12.60
64960;BMP180;51487;52.266;10.542;2022-10-22T01:40:13;100068.00;;;12.60
64960;BMP180;51487;52.266;10.542;2022-10-22T01:42:40;100061.00;;;12.60
64960;BMP180;51487;52.266;10.542;2022-10-22T01:45:13;100054.00;;;12.60
64960;BMP180;51487;52.266;10.542;2022-10-22T01:48:02;100055.00;;;12.60
64960;BMP180;51487;52.266;10.542;2022-10-22T02:00:06;100060.00;;;12.60
64960;BMP180;51487;52.266;10.542;2022-10-22T02:02:58;100067.00;;;12.60
64960;BMP180;51487;52.266;10.542;2022-10-22T02:05:53;100059.00;;;12.50
64960;BMP180;51487;52.266;10.542;2022-10-22T02:08:23;100066.00;;;12.50
64960;BMP180;51487;52.266;10.542;2022-10-22T02:10:53;100057.00;;;12.60
64960;BMP180;51487;52.266;10.542;2022-10-22T02:13:43;100051.00;;;12.60
64960;BMP180;51487;52.266;10.542;2022-10-22T02:16:17;100051.00;;;12.50
64960;BMP180;51487;52.266;10.542;2022-10-22T02:18:48;100058.00;;;12.50
64960;BMP180;51487;52.266;10.542;2022-10-22T02:21:18;100060.00;;;12.50
64960;BMP180;51487;52.266;10.542;2022-10-22T02:23:44;100068.00;;;12.50
64960;BMP180;51487;52.266;10.542;2022-10-22T02:26:18;100062.00;;;12.50
64960;BMP180;51487;52.266;10.542;2022-10-22T02:29:04;100053.00;;;12.50
64960;BMP180;51487;52.266;10.542;2022-10-22T02:31:38;100054.00;;;12.40
64960;BMP180;51487;52.266;10.542;2022-10-22T02:34:10;100044.00;;;12.40
64960;BMP180;51487;52.266;10.542;2022-10-22T02:36:41;100048.00;;;12.40
64960;BMP180;51487;52.266;10.542;2022-10-22T02:39:09;100050.00;;;12.40
64960;BMP180;51487;52.266;10.542;2022-10-22T02:41:37;100047.00;;;12.40
64960;BMP180;51487;52.266;10.542;2022-10-22T02:44:07;100053.00;;;12.40
64960;BMP180;51487;52.266;10.542;2022-10-22T02:46:34;100061.00;;;12.40
64960;BMP180;51487;52.266;10.542;2022-10-22T02:49:00;100065.00;;;12.40
64960;BMP180;51487;52.266;10.542;2022-10-22T02:51:25;100055.00;;;12.50
64960;BMP180;51487;52.266;10.542;2022-10-22T02:53:51;100063.00;;;12.40
64960;BMP180;51487;52.266;10.542;2022-10-22T02:56:16;100066.00;;;12.40
64960;BMP180;51487;52.266;10.542;2022-10-22T02:58:42;100069.00;;;12.30
64960;BMP180;51487;52.266;10.542;2022-10-22T03:01:07;100068.00;;;12.30
64960;BMP180;51487;52.266;10.542;2022-10-22T03:03:33;100063.00;;;12.30
64960;BMP180;51487;52.266;10.542;2022-10-22T03:05:59;100067.00;;;12.20
64960;BMP180;51487;52.266;10.542;2022-10-22T03:08:24;100087.00;;;12.20
64960;BMP180;51487;52.266;10.542;2022-10-22T03:10:50;100089.00;;;12.20
64960;BMP180;51487;52.266;10.542;2022-10-22T03:13:15;100085.00;;;12.20
64960;BMP180;51487;52.266;10.542;2022-10-22T03:15:41;100086.00;;;12.20
64960;BMP180;51487;52.266;10.542;2022-10-22T03:18:06;100087.00;;;12.20
64960;BMP180;51487;52.266;10.542;2022-10-22T03:20:32;100074.00;;;12.20
64960;BMP180;51487;52.266;10.542;2022-10-22T03:22:57;100074.00;;;12.10
64960;BMP180;51487;52.266;10.542;2022-10-22T03:25:25;100077.00;;;12.10
64960;BMP180;51487;52.266;10.542;2022-10-22T03:27:53;100086.00;;;12.00
64960;BMP180;51487;52.266;10.542;2022-10-22T03:30:24;100082.00;;;12.00
64960;BMP180;51487;52.266;10.542;2022-10-22T03:32:49;100097.00;;;12.00
64960;BMP180;51487;52.266;10.542;2022-10-22T03:35:15;100099.00;;;12.00
64960;BMP180;51487;52.266;10.542;2022-10-22T03:37:40;100099.00;;;12.10
64960;BMP180;51487;52.266;10.542;2022-10-22T03:40:07;100103.00;;;12.10
64960;BMP180;51487;52.266;10.542;2022-10-22T03:42:35;100102.00;;;12.10
64960;BMP180;51487;52.266;10.542;2022-10-22T03:45:01;100115.00;;;12.10
64960;BMP180;51487;52.266;10.542;2022-10-22T03:47:26;100104.00;;;12.00
64960;BMP180;51487;52.266;10.542;2022-10-22T03:49:52;100109.00;;;12.10
64960;BMP180;51487;52.266;10.542;2022-10-22T03:52:17;100108.00;;;12.00
64960;BMP180;51487;52.266;10.542;2022-10-22T03:54:43;100117.00;;;12.00
64960;BMP180;51487;52.266;10.542;2022-10-22T03:57:09;100132.00;;;11.90
64960;BMP180;51487;52.266;10.542;2022-10-22T03:59:40;100127.00;;;11.90
64960;BMP180;51487;52.266;10.542;2022-10-22T04:02:09;100127.00;;;11.90
64960;BMP180;51487;52.266;10.542;2022-10-22T04:04:36;100134.00;;;11.80
64960;BMP180;51487;52.266;10.542;2022-10-22T04:07:03;100132.00;;;11.80
64960;BMP180;51487;52.266;10.542;2022-10-22T04:09:33;100130.00;;;11.80
64960;BMP180;51487;52.266;10.542;2022-10-22T04:11:59;100121.00;;;11.90
64960;BMP180;51487;52.266;10.542;2022-10-22T04:14:25;100125.00;;;11.80
64960;BMP180;51487;52.266;10.542;2022-10-22T04:16:50;100126.00;;;11.90
64960;BMP180;51487;52.266;10.542;2022-10-22T04:19:16;100136.00;;;11.80
64960;BMP180;51487;52.266;10.542;2022-10-22T04:21:42;100138.00;;;11.80
64960;BMP180;51487;52.266;10.542;2022-10-22T04:24:08;100128.00;;;11.90
64960;BMP180;51487;52.266;10.542;2022-10-22T04:26:33;100136.00;;;11.90
64960;BMP180;51487;52.266;10.542;2022-10-22T04:28:59;100144.00;;;11.80
64960;BMP180;51487;52.266;10.542;2022-10-22T04:31:25;100147.00;;;11.80
64960;BMP180;51487;52.266;10.542;2022-10-22T04:33:55;100142.00;;;11.80
64960;BMP180;51487;52.266;10.542;2022-10-22T04:36:24;100145.00;;;11.90
64960;BMP180;51487;52.266;10.542;2022-10-22T04:38:56;100139.00;;;11.90
64960;BMP180;51487;52.266;10.542;2022-10-22T04:41:29;100145.00;;;11.80
64960;BMP180;51487;52.266;10.542;2022-10-22T04:43:57;100138.00;;;11.90
64960;BMP180;51487;52.266;10.542;2022-10-22T04:46:24;100149.00;;;11.90
64960;BMP180;51487;52.266;10.542;2022-10-22T04:48:51;100156.00;;;11.80
64960;BMP180;51487;52.266;10.542;2022-10-22T04:51:18;100151.00;;;11.80
64960;BMP180;51487;52.266;10.542;2022-10-22T04:53:46;100150.00;;;11.90
64960;BMP180;51487;52.266;10.542;2022-10-22T04:56:14;100140.00;;;11.90
64960;BMP180;51487;52.266;10.542;2022-10-22T04:58:45;100152.00;;;11.90
64960;BMP180;51487;52.266;10.542;2022-10-22T05:01:17;100138.00;;;11.90
64960;BMP180;51487;52.266;10.542;2022-10-22T05:03:45;100134.00;;;11.80
64960;BMP180;51487;52.266;10.542;2022-10-22T05:06:11;100133.00;;;11.80
64960;BMP180;51487;52.266;10.542;2022-10-22T05:08:37;100139.00;;;11.80
64960;BMP180;51487;52.266;10.542;2022-10-22T05:11:17;100133.00;;;11.80
64960;BMP180;51487;52.266;10.542;2022-10-22T05:13:45;100140.00;;;11.80
64960;BMP180;51487;52.266;10.542;2022-10-22T05:16:12;100129.00;;;11.80
64960;BMP180;51487;52.266;10.542;2022-10-22T05:18:41;100131.00;;;11.80
64960;BMP180;51487;52.266;10.542;2022-10-22T05:21:10;100134.00;;;11.80
64960;BMP180;51487;52.266;10.542;2022-10-22T05:23:37;100145.00;;;11.80
64960;BMP180;51487;52.266;10.542;2022-10-22T05:26:07;100152.00;;;11.80
64960;BMP180;51487;52.266;10.542;2022-10-22T05:28:34;100158.00;;;11.80
64960;BMP180;51487;52.266;10.542;2022-10-22T05:31:00;100162.00;;;12.00
64960;BMP180;51487;52.266;10.542;2022-10-22T05:33:28;100156.00;;;11.80
64960;BMP180;51487;52.266;10.542;2022-10-22T05:35:55;100154.00;;;11.90
64960;BMP180;51487;52.266;10.542;2022-10-22T05:38:21;100159.00;;;11.80
64960;BMP180;51487;52.266;10.542;2022-10-22T05:40:47;100161.00;;;11.90
64960;BMP180;51487;52.266;10.542;2022-10-22T05:43:22;100166.00;;;11.90
64960;BMP180;51487;52.266;10.542;2022-10-22T05:45:48;100172.00;;;11.90
64960;BMP180;51487;52.266;10.542;2022-10-22T05:48:13;100172.00;;;11.90
64960;BMP180;51487;52.266;10.542;2022-10-22T05:50:39;100167.00;;;12.00
64960;BMP180;51487;52.266;10.542;2022-10-22T05:53:05;100171.00;;;12.00
64960;BMP180;51487;52.266;10.542;2022-10-22T05:55:34;100170.00;;;11.90
64960;BMP180;51487;52.266;10.542;2022-10-22T05:58:04;100170.00;;;12.00
64960;BMP180;51487;52.266;10.542;2022-10-22T06:00:29;100184.00;;;12.00
64960;BMP180;51487;52.266;10.542;2022-10-22T06:02:55;100176.00;;;12.00
64960;BMP180;51487;52.266;10.542;2022-10-22T06:05:20;100177.00;;;12.10
64960;BMP180;51487;52.266;10.542;2022-10-22T06:07:46;100176.00;;;12.00
64960;BMP180;51487;52.266;10.542;2022-10-22T06:10:17;100181.00;;;12.10
64960;BMP180;51487;52.266;10.542;2022-10-22T06:12:48;100180.00;;;12.10
64960;BMP180;51487;52.266;10.542;2022-10-22T06:15:15;100194.00;;;12.10
64960;BMP180;51487;52.266;10.542;2022-10-22T06:17:46;100187.00;;;12.10
64960;BMP180;51487;52.266;10.542;2022-10-22T06:20:13;100188.00;;;12.10
64960;BMP180;51487;52.266;10.542;2022-10-22T06:22:39;100193.00;;;12.10
64960;BMP180;51487;52.266;10.542;2022-10-22T06:25:05;100190.00;;;12.10
64960;BMP180;51487;52.266;10.542;2022-10-22T06:27:33;100182.00;;;12.20
64960;BMP180;51487;52.266;10.542;2022-10-22T06:29:59;100181.00;;;12.10
64960;BMP180;51487;52.266;10.542;2022-10-22T06:32:24;100188.00;;;12.10
64960;BMP180;51487;52.266;10.542;2022-10-22T06:34:50;100195.00;;;12.10
64960;BMP180;51487;52.266;10.542;2022-10-22T06:37:16;100196.00;;;12.20
64960;BMP180;51487;52.266;10.542;2022-10-22T06:39:41;100210.00;;;12.20
64960;BMP180;51487;52.266;10.542;2022-10-22T06:42:07;100224.00;;;12.20
64960;BMP180;51487;52.266;10.542;2022-10-22T06:44:32;100224.00;;;12.20
64960;BMP180;51487;52.266;10.542;2022-10-22T06:46:58;100233.00;;;12.20
64960;BMP180;51487;52.266;10.542;2022-10-22T06:49:24;100234.00;;;12.30
64960;BMP180;51487;52.266;10.542;2022-10-22T06:51:51;100238.00;;;12.30
64960;BMP180;51487;52.266;10.542;2022-10-22T06:54:18;100238.00;;;12.30
64960;BMP180;51487;52.266;10.542;2022-10-22T06:56:44;100238.00;;;12.40
64960;BMP180;51487;52.266;10.542;2022-10-22T06:59:10;100236.00;;;12.40
64960;BMP180;51487;52.266;10.542;2022-10-22T07:01:36;100244.00;;;12.50
64960;BMP180;51487;52.266;10.542;2022-10-22T07:04:03;100248.00;;;12.60
64960;BMP180;51487;52.266;10.542;2022-10-22T07:06:29;100244.00;;;12.60
64960;BMP180;51487;52.266;10.542;2022-10-22T07:08:56;100254.00;;;12.70
64960;BMP180;51487;52.266;10.542;2022-10-22T07:11:25;100264.00;;;12.70
64960;BMP180;51487;52.266;10.542;2022-10-22T07:13:59;100263.00;;;12.80
64960;BMP180;51487;52.266;10.542;2022-10-22T07:16:25;100270.00;;;12.90
64960;BMP180;51487;52.266;10.542;2022-10-22T07:18:50;100271.00;;;12.90
64960;BMP180;51487;52.266;10.542;2022-10-22T07:21:18;100273.00;;;12.90
64960;BMP180;51487;52.266;10.542;2022-10-22T07:23:45;100272.00;;;13.00
64960;BMP180;51487;52.266;10.542;2022-10-22T07:26:13;100273.00;;;13.00
64960;BMP180;51487;52.266;10.542;2022-10-22T07:28:40;100281.00;;;13.10
64960;BMP180;51487;52.266;10.542;2022-10-22T07:31:08;100289.00;;;13.10
64960;BMP180;51487;52.266;10.542;2022-10-22T07:33:36;100288.00;;;13.00
64960;BMP180;51487;52.266;10.542;2022-10-22T07:36:05;100283.00;;;13.00
64960;BMP180;51487;52.266;10.542;2022-10-22T07:38:32;100290.00;;;13.00
64960;BMP180;51487;52.266;10.542;2022-10-22T07:40:59;100292.00;;;13.00
64960;BMP180;51487;52.266;10.542;2022-10-22T07:43:25;100292.00;;;13.00
64960;BMP180;51487;52.266;10.542;2022-10-22T07:45:51;100294.00;;;13.00
64960;BMP180;51487;52.266;10.542;2022-10-22T07:48:17;100287.00;;;13.00
64960;BMP180;51487;52.266;10.542;2022-10-22T07:50:43;100287.00;;;13.00
64960;BMP180;51487;52.266;10.542;2022-10-22T07:53:08;100290.00;;;13.00
64960;BMP180;51487;52.266;10.542;2022-10-22T07:55:34;100294.00;;;13.00
64960;BMP180;51487;52.266;10.542;2022-10-22T07:58:00;100302.00;;;13.00
64960;BMP180;51487;52.266;10.542;2022-10-22T08:00:26;100305.00;;;13.00
64960;BMP180;51487;52.266;10.542;2022-10-22T08:02:51;100308.00;;;13.10
64960;BMP180;51487;52.266;10.542;2022-10-22T08:05:17;100307.00;;;13.10
64960;BMP180;51487;52.266;10.542;2022-10-22T08:07:43;100311.00;;;13.10
64960;BMP180;51487;52.266;10.542;2022-10-22T08:10:09;100314.00;;;13.10
64960;BMP180;51487;52.266;10.542;2022-10-22T08:12:36;100316.00;;;13.10
64960;BMP180;51487;52.266;10.542;2022-10-22T08:15:02;100305.00;;;13.10
64960;BMP180;51487;52.266;10.542;2022-10-22T08:17:28;100313.00;;;13.10
64960;BMP180;51487;52.266;10.542;2022-10-22T08:19:54;100317.00;;;13.10
64960;BMP180;51487;52.266;10.542;2022-10-22T08:22:19;100326.00;;;13.20
64960;BMP180;51487;52.266;10.542;2022-10-22T08:24:45;100321.00;;;13.20
64960;BMP180;51487;52.266;10.542;2022-10-22T08:27:11;100325.00;;;13.20
64960;BMP180;51487;52.266;10.542;2022-10-22T08:29:36;100331.00;;;13.30
64960;BMP180;51487;52.266;10.542;2022-10-22T08:32:02;100324.00;;;13.30
64960;BMP180;51487;52.266;10.542;2022-10-22T08:34:28;100326.00;;;13.30
64960;BMP180;51487;52.266;10.542;2022-10-22T08:36:54;100330.00;;;13.40
64960;BMP180;51487;52.266;10.542;2022-10-22T08:39:20;100320.00;;;13.40
64960;BMP180;51487;52.266;10.542;2022-10-22T08:44:53;100331.00;;;13.40
64960;BMP180;51487;52.266;10.542;2022-10-22T08:50:26;100323.00;;;13.50
64960;BMP180;51487;52.266;10.542;2022-10-22T08:53:12;100330.00;;;13.60
64960;BMP180;51487;52.266;10.542;2022-10-22T08:55:40;100322.00;;;13.60
64960;BMP180;51487;52.266;10.542;2022-10-22T08:58:32;100330.00;;;13.70
64960;BMP180;51487;52.266;10.542;2022-10-22T09:01:18;100324.00;;;13.70
64960;BMP180;51487;52.266;10.542;2022-10-22T09:04:09;100321.00;;;13.80
64960;BMP180;51487;52.266;10.542;2022-10-22T09:06:40;100316.00;;;13.90
64960;BMP180;51487;52.266;10.542;2022-10-22T09:09:14;100323.00;;;13.90
64960;BMP180;51487;52.266;10.542;2022-10-22T09:11:50;100320.00;;;14.00
64960;BMP180;51487;52.266;10.542;2022-10-22T09:14:22;100326.00;;;14.10
64960;BMP180;51487;52.266;10.542;2022-10-22T09:20:06;100324.00;;;14.20
64960;BMP180;51487;52.266;10.542;2022-10-22T09:22:41;100337.00;;;14.30
64960;BMP180;51487;52.266;10.542;2022-10-22T09:25:23;100326.00;;;14.40
64960;BMP180;51487;52.266;10.542;2022-10-22T09:27:51;100330.00;;;14.40
64960;BMP180;51487;52.266;10.542;2022-10-22T09:30:24;100330.00;;;14.50
64960;BMP180;51487;52.266;10.542;2022-10-22T09:35:58;100343.00;;;14.60
64960;BMP180;51487;52.266;10.542;2022-10-22T09:38:32;100335.00;;;14.70
64960;BMP180;51487;52.266;10.542;2022-10-22T09:41:03;100335.00;;;14.70
64960;BMP180;51487;52.266;10.542;2022-10-22T09:43:29;100337.00;;;14.70
64960;BMP180;51487;52.266;10.542;2022-10-22T09:45:59;100343.00;;;14.70
64960;BMP180;51487;52.266;10.542;2022-10-22T09:48:41;100338.00;;;14.80
64960;BMP180;51487;52.266;10.542;2022-10-22T09:51:22;100336.00;;;14.90
64960;BMP180;51487;52.266;10.542;2022-10-22T09:53:57;100338.00;;;14.90
64960;BMP180;51487;52.266;10.542;2022-10-22T09:56:27;100342.00;;;15.00
64960;BMP180;51487;52.266;10.542;2022-10-22T09:59:01;100350.00;;;15.00
64960;BMP180;51487;52.266;10.542;2022-10-22T10:01:32;100345.00;;;15.00
64960;BMP180;51487;52.266;10.542;2022-10-22T10:04:05;100350.00;;;15.10
64960;BMP180;51487;52.266;10.542;2022-10-22T10:06:35;100354.00;;;15.20
64960;BMP180;51487;52.266;10.542;2022-10-22T10:09:21;100360.00;;;15.30
64960;BMP180;51487;52.266;10.542;2022-10-22T10:17:24;100374.00;;;15.30
64960;BMP180;51487;52.266;10.542;2022-10-22T10:23:19;100374.00;;;15.70
64960;BMP180;51487;52.266;10.542;2022-10-22T10:29:02;100378.00;;;15.90
64960;BMP180;51487;52.266;10.542;2022-10-22T10:42:42;100385.00;;;16.00
64960;BMP180;51487;52.266;10.542;2022-10-22T10:48:14;100403.00;;;16.10
64960;BMP180;51487;52.266;10.542;2022-10-22T10:54:35;100402.00;;;16.20
64960;BMP180;51487;52.266;10.542;2022-10-22T10:57:24;100398.00;;;16.10
64960;BMP180;51487;52.266;10.542;2022-10-22T11:00:10;100395.00;;;16.10
64960;BMP180;51487;52.266;10.542;2022-10-22T11:05:49;100399.00;;;16.10
64960;BMP180;51487;52.266;10.542;2022-10-22T11:08:32;100392.00;;;16.10
64960;BMP180;51487;52.266;10.542;2022-10-22T11:11:08;100391.00;;;16.10
64960;BMP180;51487;52.266;10.542;2022-10-22T11:17:05;100396.00;;;16.10
64960;BMP180;51487;52.266;10.542;2022-10-22T11:19:33;100389.00;;;16.10
64960;BMP180;51487;52.266;10.542;2022-10-22T11:22:13;100390.00;;;16.20
64960;BMP180;51487;52.266;10.542;2022-10-22T11:25:06;100397.00;;;16.20
64960;BMP180;51487;52.266;10.542;2022-10-22T11:27:41;100388.00;;;16.30
64960;BMP180;51487;52.266;10.542;2022-10-22T11:30:23;100389.00;;;16.40
64960;BMP180;51487;52.266;10.542;2022-10-22T11:32:55;100384.00;;;16.60
64960;BMP180;51487;52.266;10.542;2022-10-22T11:35:27;100396.00;;;16.70
64960;BMP180;51487;52.266;10.542;2022-10-22T11:37:56;100390.00;;;16.80
64960;BMP180;51487;52.266;10.542;2022-10-22T11:40:35;100392.00;;;17.00
64960;BMP180;51487;52.266;10.542;2022-10-22T11:43:33;100391.00;;;17.20
64960;BMP180;51487;52.266;10.542;2022-10-22T11:48:40;100394.00;;;17.40
64960;BMP180;51487;52.266;10.542;2022-10-22T12:04:54;100406.00;;;17.10
64960;BMP180;51487;52.266;10.542;2022-10-22T12:07:58;100398.00;;;17.10
64960;BMP180;51487;52.266;10.542;2022-10-22T12:11:03;100412.00;;;17.20
64960;BMP180;51487;52.266;10.542;2022-10-22T12:14:18;100404.00;;;17.10
64960;BMP180;51487;52.266;10.542;2022-10-22T12:21:37;100396.00;;;16.90
64960;BMP180;51487;52.266;10.542;2022-10-22T12:24:06;100404.00;;;16.90
64960;BMP180;51487;52.266;10.542;2022-10-22T12:26:36;100407.00;;;17.00
64960;BMP180;51487;52.266;10.542;2022-10-22T12:29:08;100403.00;;;16.90
64960;BMP180;51487;52.266;10.542;2022-10-22T12:31:37;100409.00;;;16.90
64960;BMP180;51487;52.266;10.542;2022-10-22T12:34:04;100398.00;;;16.80
64960;BMP180;51487;52.266;10.542;2022-10-22T12:36:35;100397.00;;;16.80
64960;BMP180;51487;52.266;10.542;2022-10-22T12:39:07;100398.00;;;16.90
64960;BMP180;51487;52.266;10.542;2022-10-22T12:41:38;100392.00;;;17.10
64960;BMP180;51487;52.266;10.542;2022-10-22T12:44:04;100395.00;;;17.20
64960;BMP180;51487;52.266;10.542;2022-10-22T12:46:33;100387.00;;;17.20
64960;BMP180;51487;52.266;10.542;2022-10-22T12:49:01;100395.00;;;17.30
64960;BMP180;51487;52.266;10.542;2022-10-22T12:51:29;100394.00;;;17.30
64960;BMP180;51487;52.266;10.542;2022-10-22T12:53:58;100386.00;;;17.40
64960;BMP180;51487;52.266;10.542;2022-10-22T12:56:31;100389.00;;;17.50
64960;BMP180;51487;52.266;10.542;2022-10-22T13:01:36;100391.00;;;17.80
64960;BMP180;51487;52.266;10.542;2022-10-22T13:06:48;100401.00;;;17.90
64960;BMP180;51487;52.266;10.542;2022-10-22T13:09:37;100399.00;;;18.00
64960;BMP180;51487;52.266;10.542;2022-10-22T13:12:06;100396.00;;;17.90
64960;BMP180;51487;52.266;10.542;2022-10-22T13:14:39;100399.00;;;17.70
64960;BMP180;51487;52.266;10.542;2022-10-22T13:17:17;100396.00;;;17.60
64960;BMP180;51487;52.266;10.542;2022-10-22T13:22:38;100404.00;;;17.50
64960;BMP180;51487;52.266;10.542;2022-10-22T13:27:52;100398.00;;;17.40
64960;BMP180;51487;52.266;10.542;2022-10-22T13:30:35;100401.00;;;17.30
64960;BMP180;51487;52.266;10.542;2022-10-22T13:33:16;100400.00;;;17.20
64960;BMP180;51487;52.266;10.542;2022-10-22T13:35:53;100404.00;;;17.10
64960;BMP180;51487;52.266;10.542;2022-10-22T13:38:22;100409.00;;;17.00
64960;BMP180;51487;52.266;10.542;2022-10-22T13:40:50;100408.00;;;17.20
64960;BMP180;51487;52.266;10.542;2022-10-22T13:43:16;100406.00;;;17.10
64960;BMP180;51487;52.266;10.542;2022-10-22T13:45:43;100407.00;;;17.10
64960;BMP180;51487;52.266;10.542;2022-10-22T13:48:15;100409.00;;;17.10
64960;BMP180;51487;52.266;10.542;2022-10-22T13:50:43;100417.00;;;17.00
64960;BMP180;51487;52.266;10.542;2022-10-22T13:53:16;100419.00;;;16.80
64960;BMP180;51487;52.266;10.542;2022-10-22T13:55:44;100421.00;;;16.70
64960;BMP180;51487;52.266;10.542;2022-10-22T13:58:14;100418.00;;;16.50
64960;BMP180;51487;52.266;10.542;2022-10-22T14:00:46;100415.00;;;16.50
64960;BMP180;51487;52.266;10.542;2022-10-22T14:03:16;100420.00;;;16.40
64960;BMP180;51487;52.266;10.542;2022-10-22T14:05:45;100410.00;;;16.50
64960;BMP180;51487;52.266;10.542;2022-10-22T14:08:14;100413.00;;;16.70
64960;BMP180;51487;52.266;10.542;2022-10-22T14:10:42;100403.00;;;16.80
64960;BMP180;51487;52.266;10.542;2022-10-22T14:13:11;100408.00;;;16.70
64960;BMP180;51487;52.266;10.542;2022-10-22T14:15:38;100418.00;;;16.60
64960;BMP180;51487;52.266;10.542;2022-10-22T14:18:06;100413.00;;;16.40
64960;BMP180;51487;52.266;10.542;2022-10-22T14:20:35;100409.00;;;16.30
64960;BMP180;51487;52.266;10.542;2022-10-22T14:23:12;100416.00;;;16.20
64960;BMP180;51487;52.266;10.542;2022-10-22T14:25:41;100425.00;;;16.20
64960;BMP180;51487;52.266;10.542;2022-10-22T14:28:10;100424.00;;;16.10
64960;BMP180;51487;52.266;10.542;2022-10-22T14:30:37;100427.00;;;16.10
64960;BMP180;51487;52.266;10.542;2022-10-22T14:33:11;100421.00;;;16.10
64960;BMP180;51487;52.266;10.542;2022-10-22T14:35:49;100429.00;;;16.00
64960;BMP180;51487;52.266;10.542;2022-10-22T14:38:16;100419.00;;;16.00
64960;BMP180;51487;52.266;10.542;2022-10-22T14:40:42;100416.00;;;16.00
64960;BMP180;51487;52.266;10.542;2022-10-22T14:43:11;100420.00;;;16.00
64960;BMP180;51487;52.266;10.542;2022-10-22T14:45:41;100419.00;;;16.10
64960;BMP180;51487;52.266;10.542;2022-10-22T14:48:07;100428.00;;;16.10
64960;BMP180;51487;52.266;10.542;2022-10-22T14:50:32;100425.00;;;16.20
64960;BMP180;51487;52.266;10.542;2022-10-22T14:52:58;100421.00;;;16.20
64960;BMP180;51487;52.266;10.542;2022-10-22T14:55:24;100450.00;;;16.20
64960;BMP180;51487;52.266;10.542;2022-10-22T14:57:52;100449.00;;;16.30
64960;BMP180;51487;52.266;10.542;2022-10-22T15:00:18;100452.00;;;16.30
64960;BMP180;51487;52.266;10.542;2022-10-22T15:02:45;100454.00;;;16.20
64960;BMP180;51487;52.266;10.542;2022-10-22T15:05:12;100455.00;;;16.40
64960;BMP180;51487;52.266;10.542;2022-10-22T15:07:40;100452.00;;;16.30
64960;BMP180;51487;52.266;10.542;2022-10-22T15:10:06;100450.00;;;16.30
64960;BMP180;51487;52.266;10.542;2022-10-22T15:12:33;100445.00;;;16.20
64960;BMP180;51487;52.266;10.542;2022-10-22T15:14:58;100441.00;;;16.00
64960;BMP180;51487;52.266;10.542;2022-10-22T15:17:24;100454.00;;;15.90
64960;BMP180;51487;52.266;10.542;2022-10-22T15:19:49;100457.00;;;15.70
64960;BMP180;51487;52.266;10.542;2022-10-22T15:22:17;100455.00;;;15.70
64960;BMP180;51487;52.266;10.542;2022-10-22T15:24:43;100450.00;;;15.70
64960;BMP180;51487;52.266;10.542;2022-10-22T15:27:13;100455.00;;;15.70
64960;BMP180;51487;52.266;10.542;2022-10-22T15:29:39;100459.00;;;15.70
64960;BMP180;51487;52.266;10.542;2022-10-22T15:32:07;100462.00;;;15.80
64960;BMP180;51487;52.266;10.542;2022-10-22T15:34:37;100464.00;;;15.70
64960;BMP180;51487;52.266;10.542;2022-10-22T15:37:07;100466.00;;;15.70
64960;BMP180;51487;52.266;10.542;2022-10-22T15:39:34;100468.00;;;15.60
64960;BMP180;51487;52.266;10.542;2022-10-22T15:42:03;100472.00;;;15.60
64960;BMP180;51487;52.266;10.542;2022-10-22T15:44:30;100478.00;;;15.50
64960;BMP180;51487;52.266;10.542;2022-10-22T15:46:57;100487.00;;;15.40